Time;durP1;ratioP1;P1;durP2;ratioP2;P2;SDS_P1;SDS_P2;PMS_P1;PMS_P2;Temp;Humidity;BMP_temperature;BMP_pressure;BME280_temperature;BME280_humidity;BME280_pressure;Samples;Min_cycle;Max_cycle;Signal;HPM_P1;HPM_P2
2021/05/13 00:02:22;;;;;;;10.90;9.80;;;;;;;12.71;88.54;94913.97;4993884;28;20228;-83
2021/05/13 00:04:48;;;;;;;10.50;9.47;;;;;;;12.71;88.62;94905.44;4993746;28;20234;-83
2021/05/13 00:07:14;;;;;;;10.43;9.30;;;;;;;12.64;88.67;94910.66;5004947;28;20309;-82
2021/05/13 00:09:42;;;;;;;11.83;9.63;;;;;;;12.65;88.21;94904.47;5013163;28;20210;-83
2021/05/13 00:12:15;;;;;;;10.77;9.67;;;;;;;12.64;88.60;94908.06;5002912;28;20204;-82
2021/05/13 00:14:41;;;;;;;10.50;9.40;;;;;;;12.63;88.28;94903.09;4993985;28;20758;-83
2021/05/13 00:17:07;;;;;;;11.13;9.53;;;;;;;12.62;88.04;94899.72;4994659;28;20219;-83
2021/05/13 00:19:33;;;;;;;10.33;9.23;;;;;;;12.58;88.05;94902.91;4993964;28;20281;-82
2021/05/13 00:21:59;;;;;;;9.93;9.03;;;;;;;12.57;88.55;94893.59;5002267;28;20207;-83
2021/05/13 00:24:25;;;;;;;11.10;9.13;;;;;;;12.53;89.68;94890.63;5013635;28;20566;-82
2021/05/13 00:26:50;;;;;;;10.33;9.00;;;;;;;12.50;88.88;94895.41;5007692;28;20226;-82
2021/05/13 00:29:21;;;;;;;9.80;8.70;;;;;;;12.52;89.00;94896.78;4993633;28;20217;-83
2021/05/13 00:31:47;;;;;;;10.27;9.27;;;;;;;12.54;88.52;94891.41;4994876;28;20199;-83
2021/05/13 00:34:13;;;;;;;10.10;9.10;;;;;;;12.55;88.81;94891.19;5010031;28;20195;-82
2021/05/13 00:36:39;;;;;;;9.93;8.93;;;;;;;12.55;88.78;94891.19;4993581;28;20207;-82
2021/05/13 00:39:08;;;;;;;9.93;8.60;;;;;;;12.51;88.93;94884.09;5012835;28;20229;-82
2021/05/13 00:41:33;;;;;;;10.77;9.67;;;;;;;12.54;88.43;94878.50;5011278;28;20698;-83
2021/05/13 00:43:59;;;;;;;9.47;8.57;;;;;;;12.57;88.22;94873.72;5012958;28;20264;-83
2021/05/13 00:46:27;;;;;;;10.60;9.50;;;;;;;12.59;88.16;94874.31;4996973;28;20463;-83
2021/05/13 00:49:01;;;;;;;10.17;8.43;;;;;;;12.64;88.25;94871.13;4996389;28;20206;-83
2021/05/13 00:51:27;;;;;;;10.40;9.40;;;;;;;12.63;88.00;94870.31;5013693;28;20233;-85
2021/05/13 00:53:56;;;;;;;9.77;8.80;;;;;;;12.60;87.79;94867.34;5015874;28;20199;-83
2021/05/13 00:56:22;;;;;;;10.50;9.40;;;;;;;12.61;87.83;94871.53;5012885;28;20206;-83
2021/05/13 00:58:51;;;;;;;10.67;9.60;;;;;;;12.60;87.97;94868.16;5015413;28;20226;-82
2021/05/13 01:01:18;;;;;;;10.77;9.70;;;;;;;12.59;88.09;94865.78;4997023;28;20210;-83
2021/05/13 01:03:45;;;;;;;10.10;9.10;;;;;;;12.56;88.80;94866.97;4993203;28;20210;-82
2021/05/13 01:06:13;;;;;;;10.17;9.27;;;;;;;12.57;88.38;94868.56;5006669;28;20218;-83
2021/05/13 01:08:41;;;;;;;10.80;9.77;;;;;;;12.56;88.61;94866.97;5014604;28;20580;-84
2021/05/13 01:11:08;;;;;;;11.03;9.97;;;;;;;12.59;88.37;94871.72;5015946;28;20199;-84
2021/05/13 01:13:36;;;;;;;10.80;9.80;;;;;;;12.61;88.64;94864.56;5013112;28;20679;-82
2021/05/13 01:16:11;;;;;;;11.10;10.10;;;;;;;12.59;88.30;94863.19;5001070;28;20218;-83
2021/05/13 01:18:38;;;;;;;11.43;10.23;;;;;;;12.50;88.96;94865.22;4993491;28;20725;-82
2021/05/13 01:21:04;;;;;;;11.10;10.07;;;;;;;12.49;89.06;94865.44;5003733;28;20237;-82
2021/05/13 01:23:31;;;;;;;11.93;10.47;;;;;;;12.51;89.23;94858.28;5012311;28;20209;-82
2021/05/13 01:25:59;;;;;;;12.17;10.97;;;;;;;12.50;90.15;94852.31;5002821;28;20254;-84
2021/05/13 01:28:26;;;;;;;12.87;10.47;;;;;;;12.58;89.51;94859.81;4992857;28;20220;-83
2021/05/13 01:30:54;;;;;;;11.30;10.20;;;;;;;12.64;89.53;94859.00;5001755;28;20203;-82
2021/05/13 01:33:21;;;;;;;10.87;9.77;;;;;;;12.65;89.16;94846.88;5012149;28;20210;-83
2021/05/13 01:35:48;;;;;;;13.27;11.03;;;;;;;12.64;88.72;94853.84;5004819;28;20198;-82
2021/05/13 01:38:16;;;;;;;11.40;10.30;;;;;;;12.62;88.70;94842.13;4993387;28;20219;-81
2021/05/13 01:40:51;;;;;;;11.20;10.10;;;;;;;12.62;88.52;94845.50;4999255;28;20218;-81
2021/05/13 01:43:18;;;;;;;12.50;11.20;;;;;;;12.64;88.68;94845.28;5012290;28;20284;-82
2021/05/13 01:45:44;;;;;;;11.23;10.13;;;;;;;12.64;88.38;94847.88;5006246;28;20203;-81
2021/05/13 01:48:09;;;;;;;11.57;10.50;;;;;;;12.62;89.16;94848.06;4992261;28;20247;-81
2021/05/13 01:50:36;;;;;;;11.20;10.10;;;;;;;12.63;88.74;94843.72;4999622;28;20305;-83
2021/05/13 01:53:04;;;;;;;12.10;10.10;;;;;;;12.58;88.82;94834.00;5010060;28;20199;-82
2021/05/13 01:55:30;;;;;;;11.00;10.00;;;;;;;12.58;88.90;94833.19;5011506;28;20191;-82
2021/05/13 01:57:57;;;;;;;10.40;9.30;;;;;;;12.53;89.16;94833.81;4992380;28;20219;-81
2021/05/13 02:00:24;;;;;;;10.67;9.57;;;;;;;12.55;89.51;94831.81;4992604;28;20215;-82
2021/05/13 02:02:50;;;;;;;10.33;9.33;;;;;;;12.58;88.84;94830.63;5009187;28;20238;-81
2021/05/13 02:05:17;;;;;;;9.83;8.87;;;;;;;12.60;88.63;94831.19;5011517;28;20225;-82
2021/05/13 02:07:43;;;;;;;11.00;9.87;;;;;;;12.57;89.03;94832.41;4995862;28;20738;-81
2021/05/13 02:10:11;;;;;;;10.10;9.20;;;;;;;12.58;89.26;94831.41;4992745;28;20210;-81
2021/05/13 02:12:37;;;;;;;9.73;8.83;;;;;;;12.60;88.92;94833.78;5007611;28;20203;-82
2021/05/13 02:15:07;;;;;;;9.60;8.70;;;;;;;12.62;88.93;94831.78;5012124;28;20261;-80
2021/05/13 02:17:33;;;;;;;9.80;8.80;;;;;;;12.63;88.64;94831.59;4998731;28;20815;-82
2021/05/13 02:19:59;;;;;;;9.80;8.90;;;;;;;12.64;88.54;94829.78;4992715;28;20235;-83
2021/05/13 02:22:25;;;;;;;9.87;8.87;;;;;;;12.64;88.56;94822.84;4993725;28;20686;-83
2021/05/13 02:24:50;;;;;;;9.03;8.23;;;;;;;12.63;88.88;94823.84;4992329;28;20706;-82
2021/05/13 02:27:16;;;;;;;10.37;8.83;;;;;;;12.61;88.30;94832.78;5002728;28;20722;-83
2021/05/13 02:29:42;;;;;;;9.87;8.87;;;;;;;12.54;88.76;94822.47;5012536;28;20219;-83
2021/05/13 02:32:09;;;;;;;8.80;7.97;;;;;;;12.54;88.90;94819.09;5002815;28;20199;-83
2021/05/13 02:34:35;;;;;;;9.97;9.00;;;;;;;12.55;88.64;94818.91;4998697;28;20200;-82
2021/05/13 02:37:01;;;;;;;9.43;8.53;;;;;;;12.54;88.77;94814.75;4992774;28;20297;-82
2021/05/13 02:39:27;;;;;;;9.63;8.73;;;;;;;12.55;88.71;94813.75;4992245;28;20282;-82
2021/05/13 02:41:53;;;;;;;9.07;8.27;;;;;;;12.55;88.50;94805.19;4990654;28;20208;-82
2021/05/13 02:44:19;;;;;;;8.87;7.97;;;;;;;12.52;88.84;94806.41;4995181;28;20198;-82
2021/05/13 02:46:45;;;;;;;9.60;8.60;;;;;;;12.50;88.34;94811.00;5009644;28;20269;-82
2021/05/13 02:49:11;;;;;;;10.13;8.70;;;;;;;12.48;88.66;94809.63;4993913;28;20231;-81
2021/05/13 02:51:37;;;;;;;9.50;8.60;;;;;;;12.43;88.44;94799.91;5001342;28;20199;-82
2021/05/13 02:54:04;;;;;;;9.60;8.60;;;;;;;12.42;88.67;94801.72;5012209;28;20201;-81
2021/05/13 02:56:30;;;;;;;8.57;7.87;;;;;;;12.40;89.09;94795.16;5012200;28;20202;-81
2021/05/13 02:58:56;;;;;;;9.70;8.70;;;;;;;12.40;89.36;94798.53;4997221;28;20719;-81
2021/05/13 03:01:24;;;;;;;9.73;8.83;;;;;;;12.43;89.51;94802.50;4990788;28;20211;-82
2021/05/13 03:03:50;;;;;;;9.77;8.70;;;;;;;12.36;90.15;94804.31;5002878;28;20202;-81
2021/05/13 03:06:17;;;;;;;9.57;8.70;;;;;;;12.38;89.58;94802.31;5014673;28;20219;-82
2021/05/13 03:08:43;;;;;;;10.27;8.47;;;;;;;12.41;89.57;94796.75;5004347;28;20223;-81
2021/05/13 03:11:10;;;;;;;9.50;8.60;;;;;;;12.44;88.81;94798.91;4994141;28;20307;-81
2021/05/13 03:13:37;;;;;;;9.50;8.60;;;;;;;12.45;88.55;94790.19;5006286;28;20203;-81
2021/05/13 03:16:03;;;;;;;9.67;8.67;;;;;;;12.45;89.14;94798.72;5007242;28;20195;-81
2021/05/13 03:18:31;;;;;;;9.90;8.90;;;;;;;12.43;89.30;94794.75;4994965;28;20793;-82
2021/05/13 03:21:02;;;;;;;9.30;8.50;;;;;;;12.37;89.78;94793.78;4994365;28;20202;-82
2021/05/13 03:23:36;;;;;;;9.80;8.80;;;;;;;12.34;89.55;94794.19;4998049;28;20199;-82
2021/05/13 03:26:03;;;;;;;9.63;8.73;;;;;;;12.32;89.42;94791.03;5013013;28;20237;-81
2021/05/13 03:28:29;;;;;;;8.90;8.20;;;;;;;12.39;89.16;94796.16;5011883;28;20258;-81
2021/05/13 03:30:55;;;;;;;10.07;9.07;;;;;;;12.35;88.91;94793.19;5014081;28;20203;-82
2021/05/13 03:33:21;;;;;;;9.30;8.40;;;;;;;12.34;89.28;94789.03;5000487;28;20202;-81
2021/05/13 03:35:47;;;;;;;9.47;8.47;;;;;;;12.33;89.44;94792.59;4993750;28;20695;-81
2021/05/13 03:38:13;;;;;;;9.00;8.20;;;;;;;12.32;88.98;94790.22;5000645;28;20581;-82
2021/05/13 03:40:41;;;;;;;9.60;8.77;;;;;;;12.30;89.10;94784.50;5013540;28;20619;-82
2021/05/13 03:43:07;;;;;;;9.40;8.43;;;;;;;12.30;89.39;94785.31;5003700;28;20203;-81
2021/05/13 03:45:34;;;;;;;9.40;8.50;;;;;;;12.33;89.41;94784.06;4994244;28;20199;-81
2021/05/13 03:48:02;;;;;;;11.43;8.57;;;;;;;12.31;88.51;94792.03;5001555;28;20785;-81
2021/05/13 03:50:29;;;;;;;9.30;8.40;;;;;;;12.30;88.48;94795.63;5014227;28;20202;-81
2021/05/13 03:52:55;;;;;;;8.90;8.10;;;;;;;12.34;88.68;94788.25;5013304;28;20195;-82
2021/05/13 03:55:21;;;;;;;9.43;8.53;;;;;;;12.35;88.48;94788.03;5013845;28;20187;-80
2021/05/13 03:57:49;;;;;;;9.37;8.33;;;;;;;12.33;88.21;94784.06;5011814;28;20219;-82
2021/05/13 04:00:18;;;;;;;9.73;8.83;;;;;;;12.30;88.67;94790.47;5014060;28;20211;-83
2021/05/13 04:02:44;;;;;;;10.30;8.37;;;;;;;12.31;88.43;94792.03;5013033;28;20203;-83
2021/05/13 04:05:11;;;;;;;8.50;7.70;;;;;;;12.30;88.60;94790.47;5013105;28;20252;-82
2021/05/13 04:07:38;;;;;;;8.97;8.17;;;;;;;12.29;89.04;94790.66;5004129;28;20215;-82
2021/05/13 04:10:08;;;;;;;9.17;8.00;;;;;;;12.25;88.72;94792.06;4993924;28;20299;-82
2021/05/13 04:12:36;;;;;;;8.93;8.13;;;;;;;12.26;89.02;94786.69;5001564;28;20194;-82
2021/05/13 04:15:05;;;;;;;9.23;8.20;;;;;;;12.30;88.80;94789.66;5013646;28;20246;-83
2021/05/13 04:17:31;;;;;;;9.37;8.37;;;;;;;12.30;88.63;94789.66;5005510;28;20234;-83
2021/05/13 04:19:56;;;;;;;9.33;8.53;;;;;;;12.31;88.62;94788.66;4998566;28;20195;-83
2021/05/13 04:22:22;;;;;;;8.77;8.00;;;;;;;12.27;88.68;94793.44;5013414;28;20214;-83
2021/05/13 04:24:48;;;;;;;9.43;8.43;;;;;;;12.31;89.11;94786.88;5009511;28;20277;-83
2021/05/13 04:27:14;;;;;;;9.67;8.77;;;;;;;12.34;88.39;94785.66;4994153;28;20290;-82
2021/05/13 04:29:40;;;;;;;9.40;8.40;;;;;;;12.36;88.12;94787.03;4995143;28;20347;-81
2021/05/13 04:32:07;;;;;;;8.93;8.03;;;;;;;12.33;88.26;94792.59;5012162;28;20210;-82
2021/05/13 04:34:35;;;;;;;9.13;8.23;;;;;;;12.32;88.45;94795.38;4993660;28;20211;-82
2021/05/13 04:37:01;;;;;;;8.90;8.07;;;;;;;12.33;88.88;94797.75;4995164;28;20254;-80
2021/05/13 04:39:26;;;;;;;9.00;8.13;;;;;;;12.36;88.46;94792.19;5012040;28;20205;-81
2021/05/13 04:41:52;;;;;;;9.37;8.47;;;;;;;12.36;88.76;94802.53;5011565;28;20261;-83
2021/05/13 04:44:18;;;;;;;9.43;8.53;;;;;;;12.39;88.32;94798.75;4996622;28;20203;-80
2021/05/13 04:46:45;;;;;;;9.57;8.10;;;;;;;12.40;88.42;94797.75;4993180;28;20220;-82
2021/05/13 04:49:16;;;;;;;9.30;8.40;;;;;;;12.39;88.25;94796.16;5013760;28;20250;-84
2021/05/13 04:51:45;;;;;;;9.57;8.67;;;;;;;12.35;88.39;94798.34;5014788;28;20691;-81
2021/05/13 04:54:13;;;;;;;9.20;8.23;;;;;;;12.39;88.50;94793.56;4998035;28;20204;-81
2021/05/13 04:56:39;;;;;;;11.07;9.87;;;;;;;12.43;88.98;94799.91;5011096;28;20218;-81
2021/05/13 04:59:05;;;;;;;27.77;24.93;;;;;;;12.41;89.05;94791.59;4997963;28;20200;-84
2021/05/13 05:01:31;;;;;;;11.70;10.60;;;;;;;12.41;88.47;94799.31;4994618;28;20223;-82
2021/05/13 05:03:57;;;;;;;9.53;8.63;;;;;;;12.36;88.64;94797.34;5007661;28;20199;-81
2021/05/13 05:06:24;;;;;;;9.57;8.47;;;;;;;12.38;88.42;94799.75;5012647;28;20231;-81
2021/05/13 05:08:50;;;;;;;9.13;8.30;;;;;;;12.30;89.48;94797.41;4998718;28;20852;-81
2021/05/13 05:11:17;;;;;;;9.03;7.90;;;;;;;12.34;89.29;94791.59;4992595;28;20255;-82
2021/05/13 05:13:43;;;;;;;9.57;8.67;;;;;;;12.37;89.16;94793.78;4993110;28;20230;-80
2021/05/13 05:16:09;;;;;;;9.17;8.27;;;;;;;12.35;88.72;94790.59;4992026;28;20211;-81
2021/05/13 05:18:35;;;;;;;8.70;7.93;;;;;;;12.36;88.77;94793.97;4993387;28;20258;-81
2021/05/13 05:21:00;;;;;;;9.20;8.30;;;;;;;12.37;88.82;94786.03;4992617;28;20211;-81
2021/05/13 05:23:29;;;;;;;9.77;8.73;;;;;;;12.39;88.63;94786.63;5005115;28;20230;-81
2021/05/13 05:25:56;;;;;;;9.47;8.47;;;;;;;12.39;88.63;94789.22;5010896;28;20285;-82
2021/05/13 05:28:22;;;;;;;9.97;8.97;;;;;;;12.39;88.69;94791.78;4999576;28;20607;-81
2021/05/13 05:30:48;;;;;;;9.67;8.67;;;;;;;12.36;88.55;94789.63;4992239;28;20206;-81
2021/05/13 05:33:14;;;;;;;10.37;9.33;;;;;;;12.39;89.25;94785.84;5001040;28;20286;-83
2021/05/13 05:35:40;;;;;;;10.07;9.00;;;;;;;12.40;89.36;94790.78;4996488;28;20287;-82
2021/05/13 05:38:07;;;;;;;9.47;8.53;;;;;;;12.38;89.44;94792.78;4998522;28;20241;-82
2021/05/13 05:40:34;;;;;;;9.90;8.70;;;;;;;12.38;89.56;94792.00;5011640;28;20261;-81
2021/05/13 05:43:01;;;;;;;10.37;8.73;;;;;;;12.41;89.34;94789.78;5006625;28;20226;-81
2021/05/13 05:45:27;;;;;;;9.97;8.97;;;;;;;12.41;89.52;94784.63;4992101;28;20208;-81
2021/05/13 05:47:59;;;;;;;9.50;8.60;;;;;;;12.48;89.67;94789.78;5009881;28;20226;-81
2021/05/13 05:50:33;;;;;;;9.73;8.73;;;;;;;12.51;89.21;94788.56;5011337;28;20233;-82
2021/05/13 05:53:07;;;;;;;9.40;8.60;;;;;;;12.47;89.39;94777.84;5010252;28;20207;-81
2021/05/13 05:55:35;;;;;;;9.67;8.73;;;;;;;12.44;89.67;94778.25;5011194;28;20293;-82
2021/05/13 05:58:02;;;;;;;9.77;8.87;;;;;;;12.43;89.62;94776.69;5009916;28;20342;-83
2021/05/13 06:00:28;;;;;;;10.03;9.03;;;;;;;12.41;90.59;94778.69;5011715;28;20567;-81
2021/05/13 06:02:56;;;;;;;9.60;8.60;;;;;;;12.45;90.48;94774.69;5006913;28;20984;-81
2021/05/13 06:05:23;;;;;;;9.93;8.93;;;;;;;12.42;89.42;94775.88;5008792;28;20209;-81
2021/05/13 06:07:56;;;;;;;10.63;9.00;;;;;;;12.47;89.74;94774.47;5005133;28;20686;-80
2021/05/13 06:10:22;;;;;;;10.20;9.20;;;;;;;12.46;89.35;94773.69;5004431;28;20231;-82
2021/05/13 06:12:49;;;;;;;9.57;8.67;;;;;;;12.51;88.95;94776.41;5000049;28;20219;-81
2021/05/13 06:15:17;;;;;;;10.83;9.83;;;;;;;12.60;88.89;94787.31;4992589;28;20211;-84
2021/05/13 06:17:43;;;;;;;16.80;15.00;;;;;;;12.65;88.46;94777.94;5003117;28;20226;-84
2021/05/13 06:20:18;;;;;;;13.60;12.23;;;;;;;12.64;88.49;94781.53;5010871;28;20205;-84
2021/05/13 06:22:44;;;;;;;10.60;9.37;;;;;;;12.72;88.30;94775.28;4993009;28;20231;-82
2021/05/13 06:25:11;;;;;;;10.63;9.37;;;;;;;12.72;88.43;94783.84;4992386;28;20663;-82
2021/05/13 06:27:37;;;;;;;10.30;9.07;;;;;;;12.73;88.69;94782.03;4993350;28;20371;-84
2021/05/13 06:30:05;;;;;;;9.80;8.80;;;;;;;12.69;87.84;94781.69;5002772;28;20290;-83
2021/05/13 06:32:31;;;;;;;10.00;9.10;;;;;;;12.73;88.16;94782.03;4996670;28;20788;-82
2021/05/13 06:34:57;;;;;;;10.37;8.70;;;;;;;12.71;88.42;94765.97;5006581;28;20198;-84
2021/05/13 06:37:26;;;;;;;11.30;9.23;;;;;;;12.69;88.24;94778.31;5005407;28;20215;-84
2021/05/13 06:39:56;;;;;;;9.73;8.67;;;;;;;12.63;89.26;94776.56;4994116;28;20203;-84
2021/05/13 06:42:27;;;;;;;22.07;19.80;;;;;;;12.65;89.29;94782.31;4993614;28;20341;-84
2021/05/13 06:44:56;;;;;;;10.63;9.53;;;;;;;12.67;88.48;94775.94;5001332;28;20253;-84
2021/05/13 06:47:27;;;;;;;9.50;8.50;;;;;;;12.74;88.56;94773.28;4998340;28;20254;-83
2021/05/13 06:50:03;;;;;;;10.47;9.00;;;;;;;12.73;88.02;94784.63;5006577;28;20226;-84
2021/05/13 06:52:29;;;;;;;10.07;9.00;;;;;;;12.69;88.07;94778.31;5006880;28;20202;-83
2021/05/13 06:54:55;;;;;;;9.63;8.40;;;;;;;12.79;87.62;94786.38;4997224;28;20246;-84
2021/05/13 06:57:21;;;;;;;9.37;8.37;;;;;;;12.77;88.59;94772.88;5008299;28;20265;-83
2021/05/13 07:00:04;;;;;;;9.53;8.50;;;;;;;12.78;88.78;94772.69;4995959;28;20196;-84
2021/05/13 07:02:32;;;;;;;10.20;9.13;;;;;;;12.78;88.16;94774.47;5001436;28;20724;-84
2021/05/13 07:04:58;;;;;;;9.13;8.13;;;;;;;12.84;87.55;94783.19;5015850;28;20199;-84
2021/05/13 07:07:24;;;;;;;11.33;8.30;;;;;;;12.79;87.46;94788.97;5003858;28;20271;-83
2021/05/13 07:09:59;;;;;;;11.20;10.10;;;;;;;12.84;86.76;94781.38;5004308;28;20203;-84
2021/05/13 07:12:25;;;;;;;9.60;8.60;;;;;;;12.95;87.25;94779.91;5015394;28;20202;-83
2021/05/13 07:14:50;;;;;;;10.00;9.00;;;;;;;13.00;88.08;94777.50;5005365;28;20214;-83
2021/05/13 07:17:16;;;;;;;9.03;7.97;;;;;;;13.01;87.66;94776.50;4993737;28;20740;-83
2021/05/13 07:19:43;;;;;;;8.73;7.83;;;;;;;13.06;86.67;94777.44;4994937;28;20203;-84
2021/05/13 07:22:09;;;;;;;8.70;7.80;;;;;;;13.14;87.40;94776.38;5006853;28;20206;-84
2021/05/13 07:24:35;;;;;;;10.67;8.07;;;;;;;13.26;86.66;94785.06;5014694;28;20751;-84
2021/05/13 07:27:01;;;;;;;9.23;8.20;;;;;;;13.25;87.48;94780.09;5013306;28;20226;-83
2021/05/13 07:29:33;;;;;;;9.00;8.10;;;;;;;13.24;87.27;94781.91;5014968;28;20203;-84
2021/05/13 07:31:59;;;;;;;11.07;8.00;;;;;;;13.37;87.09;94775.81;5012937;28;20199;-84
2021/05/13 07:34:51;;;;;;;9.70;8.70;;;;;;;13.34;85.91;94778.81;5008669;28;20206;-86
2021/05/13 07:37:25;;;;;;;9.07;8.17;;;;;;;13.42;86.28;94784.50;4994134;28;20584;-84
2021/05/13 07:39:51;;;;;;;11.43;9.50;;;;;;;13.45;86.46;94778.91;5002210;28;20199;-85
2021/05/13 07:42:23;;;;;;;17.90;15.23;;;;;;;13.55;86.34;94773.25;5012082;28;20288;-84
2021/05/13 07:44:52;;;;;;;9.70;8.77;;;;;;;13.63;87.45;94777.34;5004646;28;20200;-84
2021/05/13 07:47:20;;;;;;;9.50;8.40;;;;;;;13.70;87.84;94780.63;5004097;28;20215;-85
2021/05/13 07:49:50;;;;;;;9.00;8.03;;;;;;;13.75;84.92;94779.00;5007406;28;20670;-86
2021/05/13 07:52:23;;;;;;;9.33;7.90;;;;;;;13.71;83.64;94785.59;4994441;28;20207;-85
2021/05/13 07:54:49;;;;;;;9.73;7.90;;;;;;;13.78;83.15;94782.97;5004273;28;20225;-85
2021/05/13 07:57:21;;;;;;;8.07;7.30;;;;;;;13.72;82.32;94784.59;5016136;28;20295;-83
2021/05/13 07:59:52;;;;;;;8.33;7.53;;;;;;;13.77;83.28;94787.34;5010906;28;20199;-83
2021/05/13 08:02:21;;;;;;;10.07;7.60;;;;;;;13.76;83.48;94783.16;4998182;28;20211;-85
2021/05/13 08:04:51;;;;;;;8.53;7.63;;;;;;;13.79;83.43;94781.94;4998562;28;20195;-84
2021/05/13 08:07:21;;;;;;;8.57;7.10;;;;;;;13.69;83.29;94779.06;5006899;28;20334;-84
2021/05/13 08:09:50;;;;;;;8.27;7.30;;;;;;;13.69;85.34;94781.66;5014972;28;20195;-85
2021/05/13 08:12:19;;;;;;;15.27;12.77;;;;;;;13.69;83.41;94779.84;5015061;28;20289;-86
2021/05/13 08:14:48;;;;;;;8.53;7.53;;;;;;;13.77;82.70;94776.19;5010887;28;20626;-84
2021/05/13 08:17:20;;;;;;;7.83;7.03;;;;;;;13.75;81.82;94775.63;5005427;28;20231;-85
2021/05/13 08:19:50;;;;;;;10.13;6.93;;;;;;;13.80;80.27;94773.97;5010977;28;20211;-86
2021/05/13 08:22:19;;;;;;;7.93;7.13;;;;;;;13.81;80.08;94774.75;5004149;28;20195;-84
2021/05/13 08:24:48;;;;;;;11.33;6.90;;;;;;;13.83;81.80;94772.75;5011951;28;20233;-85
2021/05/13 08:27:20;;;;;;;9.90;7.10;;;;;;;13.92;80.52;94766.28;4997415;28;20219;-85
2021/05/13 08:29:48;;;;;;;8.83;6.50;;;;;;;13.88;79.70;94767.69;4999281;28;20199;-84
2021/05/13 08:32:20;;;;;;;7.87;6.23;;;;;;;13.97;78.59;94766.41;5013730;28;20199;-85
2021/05/13 08:34:53;;;;;;;7.23;6.47;;;;;;;13.98;79.18;94759.44;4997057;28;20254;-84
2021/05/13 08:37:19;;;;;;;10.40;6.90;;;;;;;13.99;79.11;94764.41;4995864;28;20223;-84
2021/05/13 08:39:49;;;;;;;8.13;5.80;;;;;;;14.03;78.92;94757.78;5006160;28;20245;-86
2021/05/13 08:42:18;;;;;;;7.43;5.47;;;;;;;14.13;79.25;94762.44;5013854;28;20199;-84
2021/05/13 08:45:00;;;;;;;6.40;5.80;;;;;;;14.18;77.04;94757.41;5004706;28;20199;-82
2021/05/13 08:47:32;;;;;;;9.43;6.33;;;;;;;14.27;79.16;94755.28;5010574;28;20712;-83
2021/05/13 08:50:01;;;;;;;6.10;5.50;;;;;;;14.30;76.86;94755.63;5005040;28;20195;-85
2021/05/13 08:52:30;;;;;;;9.40;8.40;;;;;;;14.33;76.65;94750.03;4995786;28;20284;-85
2021/05/13 08:55:11;;;;;;;10.33;7.40;;;;;;;14.34;77.72;94746.44;4995600;28;20203;-84
2021/05/13 08:58:10;;;;;;;7.80;5.70;;;;;;;14.34;73.81;94740.47;5028645;23;20239;-82
2021/05/13 09:07:15;;;;;;;6.83;5.37;;;;;;;14.45;77.28;94740.50;4908089;28;20246;-85
2021/05/13 09:10:00;;;;;;;6.97;5.13;;;;;;;14.50;77.32;94742.44;4977397;28;20273;-84
2021/05/13 09:15:41;;;;;;;9.00;5.27;;;;;;;14.47;77.59;94743.69;4958111;28;20237;-83
2021/05/13 09:18:14;;;;;;;5.93;4.47;;;;;;;14.34;76.30;94746.44;4995331;28;20230;-84
2021/05/13 09:24:36;;;;;;;6.60;4.93;;;;;;;14.42;74.87;94738.41;4974228;28;20219;-84
2021/05/13 09:27:16;;;;;;;6.37;4.20;;;;;;;14.59;75.04;94740.34;4965334;28;20238;-84
2021/05/13 09:33:27;;;;;;;3.90;3.50;;;;;;;14.76;72.77;94738.69;4988886;28;20210;-85
2021/05/13 09:35:53;;;;;;;6.10;3.70;;;;;;;14.90;72.84;94732.28;5018552;28;20202;-83
2021/05/13 09:38:31;;;;;;;3.93;3.50;;;;;;;14.94;71.33;94727.44;5017834;28;20227;-84
2021/05/13 09:40:57;;;;;;;3.67;3.17;;;;;;;14.93;71.49;94731.03;5016916;28;20219;-84
2021/05/13 09:43:28;;;;;;;4.33;3.50;;;;;;;14.86;68.33;94725.97;5017980;28;20206;-85
2021/05/13 09:45:56;;;;;;;4.97;3.77;;;;;;;14.84;70.43;94721.00;5019082;28;20203;-84
2021/05/13 09:48:39;;;;;;;5.83;3.60;;;;;;;14.74;69.35;94722.56;5018332;28;20223;-85
2021/05/13 09:51:16;;;;;;;4.40;3.87;;;;;;;14.63;68.55;94726.72;5018079;28;20203;-84
2021/05/13 09:53:42;;;;;;;4.97;3.93;;;;;;;14.54;67.65;94733.22;5018925;28;20204;-84
2021/05/13 09:56:24;;;;;;;5.87;4.17;;;;;;;14.48;68.71;94726.34;5017903;28;20202;-82
2021/05/13 09:58:51;;;;;;;6.83;4.13;;;;;;;14.17;70.92;94727.34;5018744;28;20814;-84
2021/05/13 10:01:17;;;;;;;12.67;11.33;;;;;;;13.92;73.41;94724.88;5017288;28;20722;-83
2021/05/13 10:03:44;;;;;;;8.47;4.00;;;;;;;13.80;75.00;94724.81;5017117;28;20202;-83
2021/05/13 10:06:14;;;;;;;5.37;4.33;;;;;;;13.84;77.69;94725.19;5017420;28;20229;-84
2021/05/13 10:08:43;;;;;;;4.57;3.90;;;;;;;13.95;77.19;94716.66;5015877;28;20238;-83
2021/05/13 10:11:15;;;;;;;4.93;4.37;;;;;;;13.96;78.00;94720.06;5016123;28;20202;-85
2021/05/13 10:13:44;;;;;;;6.97;4.57;;;;;;;14.11;77.92;94716.06;5016409;28;20199;-83
2021/05/13 10:16:16;;;;;;;5.60;4.53;;;;;;;14.30;78.77;94709.03;5016886;28;20206;-85
2021/05/13 10:19:02;;;;;;;6.07;4.57;;;;;;;14.43;80.26;94716.63;5015916;28;20222;-84
2021/05/13 10:21:52;;;;;;;4.97;4.50;;;;;;;14.48;81.51;94705.63;5016424;28;20702;-83
2021/05/13 10:24:25;;;;;;;6.27;4.47;;;;;;;14.65;79.30;94716.91;5016150;28;20268;-81
2021/05/13 10:26:53;;;;;;;6.10;5.00;;;;;;;14.76;79.90;94710.19;4996945;28;20219;-84
2021/05/13 10:29:36;;;;;;;5.50;5.00;;;;;;;14.83;79.14;94708.25;4994941;28;20206;-83
2021/05/13 10:32:33;;;;;;;5.90;5.37;;;;;;;14.80;76.12;94709.53;4983274;28;20200;-86
2021/05/13 10:35:07;;;;;;;8.03;6.70;;;;;;;14.74;75.15;94705.22;4995392;28;20191;-84
2021/05/13 10:37:35;;;;;;;6.43;5.07;;;;;;;14.62;74.42;94698.47;4995375;28;20219;-85
2021/05/13 10:40:42;;;;;;;6.13;4.90;;;;;;;14.62;74.74;94701.84;4996050;28;20191;-82
2021/05/13 10:43:15;;;;;;;5.60;4.97;;;;;;;14.62;75.51;94701.84;4996902;28;20871;-85
2021/05/13 10:45:47;;;;;;;5.07;4.57;;;;;;;14.53;75.28;94692.78;4994838;28;20187;-84
2021/05/13 10:48:18;;;;;;;8.83;5.23;;;;;;;14.56;76.50;94697.53;4996127;28;20727;-83
2021/05/13 10:50:58;;;;;;;7.80;5.13;;;;;;;14.63;76.98;94687.84;4994793;28;20191;-85
2021/05/13 10:53:44;;;;;;;7.90;4.90;;;;;;;14.69;76.59;94686.97;4995342;28;20203;-86
2021/05/13 10:56:35;;;;;;;6.07;4.80;;;;;;;14.78;75.59;94685.63;4988821;28;20195;-84
2021/05/13 10:59:15;;;;;;;6.90;4.67;;;;;;;14.85;75.63;94686.28;4995511;28;20737;-83
2021/05/13 11:01:46;;;;;;;6.83;4.07;;;;;;;14.94;75.69;94680.78;4995147;28;20200;-85
2021/05/13 11:04:43;;;;;;;5.60;4.07;;;;;;;15.06;76.20;94677.16;4989812;28;20200;-85
2021/05/13 11:07:29;;;;;;;5.67;4.40;;;;;;;15.16;76.14;94676.63;4978980;28;20341;-84
2021/05/13 11:10:00;;;;;;;4.70;4.30;;;;;;;15.27;77.21;94682.78;4995730;28;20207;-86
2021/05/13 11:12:27;;;;;;;5.77;4.03;;;;;;;15.26;75.94;94679.41;4995087;28;20454;-85
2021/05/13 11:15:18;;;;;;;5.87;3.73;;;;;;;15.26;69.97;94663.06;4996169;28;20203;-83
2021/05/13 11:18:09;;;;;;;5.03;4.13;;;;;;;15.18;68.07;94674.59;4996100;28;20215;-84
2021/05/13 11:20:39;;;;;;;4.47;3.73;;;;;;;15.11;70.03;94677.28;4995374;28;20408;-85
2021/05/13 11:23:08;;;;;;;14.43;12.93;;;;;;;15.02;72.47;94673.44;4995080;28;20203;-81
2021/05/13 11:25:40;;;;;;;8.73;7.83;;;;;;;14.93;74.13;94679.22;4996346;28;20238;-83
2021/05/13 11:28:30;;;;;;;9.17;7.53;;;;;;;14.86;75.24;94668.94;4999691;28;20762;-82
2021/05/13 11:31:11;;;;;;;6.20;5.40;;;;;;;14.88;72.42;94672.09;4990775;28;20238;-84
2021/05/13 11:33:39;;;;;;;6.33;4.93;;;;;;;14.89;72.94;94667.72;4996597;28;20205;-84
2021/05/13 11:36:08;;;;;;;5.10;4.60;;;;;;;14.81;73.80;94661.06;4998158;28;20239;-84
2021/05/13 11:38:34;;;;;;;4.33;3.93;;;;;;;14.85;73.71;94668.16;4997944;28;20231;-82
2021/05/13 11:41:00;;;;;;;4.30;3.90;;;;;;;14.87;73.58;94662.75;4997632;28;20195;-83
2021/05/13 11:43:28;;;;;;;4.20;3.80;;;;;;;14.90;73.29;94672.66;4996627;28;20200;-84
2021/05/13 11:45:56;;;;;;;4.07;3.67;;;;;;;14.89;72.71;94672.88;4998068;28;20877;-84
2021/05/13 11:48:25;;;;;;;4.93;3.83;;;;;;;14.91;72.86;94674.25;4998896;28;20235;-82
2021/05/13 11:50:52;;;;;;;3.87;3.23;;;;;;;14.83;71.57;94672.78;4998688;28;20199;-85
2021/05/13 11:53:19;;;;;;;5.57;3.10;;;;;;;14.86;72.47;94667.13;4999835;28;20192;-85
2021/05/13 11:55:47;;;;;;;4.57;4.10;;;;;;;14.85;71.96;94672.53;4999291;28;20254;-86
2021/05/13 11:58:14;;;;;;;14.67;13.23;;;;;;;14.84;71.28;94660.59;4999054;28;20238;-85